Qualifying 1

POSIT NUM DRIVER NAT BOAT LAPS BEST LAP AT SPEED Km/h
1 1 Pierre Lundin SWE Moore 15 00:44:32 8 138,1
2 35 Rashed Al Qemzi UAE DAC 21 00:44:57 13 137,3
3 45 Duarte Benavente POR Moore 10 00:44:59 9 137,3
4 7 Alberto Comparato ITA DAC 14 00:44:63 12 137,1
5 10 Oskar Samuelsson SWE Molgaard 23 00:44:69 21 136,9
6 37 Héctor Sanz SPA BaBa 26 00:44:69 13 136,9
7 21 Erik Edin SWE Molgaard 7 00:44:82 2 136,5
8 17 Ferdinand Zandbergen NL BaBa 22 00:44:94 21 136,2
9 41 Edgaras Riabko LT DAC 16 00:44:97 3 136,1
10 54 Daniel Segenmark SWE DAC 22 00:45:00 20 136,0
11 77 Tobias Munthe-Kaas NOR BaBa 18 00:45:16 11 135,5
12 2 Johan Österberg SWE Molgaard 26 00:45:28 4 135,2
13 8 Nelson Morin FRA Moore 18 00:45:38 13 134,9
14 6 Ola Pettersson SWE Molgaard 26 00:45:40 26 134,8
15 3 Owen Jelf GBR BaBa 16 00:45:50 8 134,5
16 9 Mette Bjerknæs NOR Moore 24 00:45:59 13 134,2
17 51 Uvis Slakteris LAT Molgaard 21 00:45:82 20 133,6
18 36 Mohamed Al Mehairbi UAE DAC 21 00:45:91 7 133,3
19 33 Fabrice Boulier FRA Moore 15 00:46:81 9 130,7
20 88 Paolo Longhi ITA  DAC 25 00:48:53 16 126,1
21 82 Béla Cserni HUN ASV 5 00:48:87 3 125,2
22 11 Bimba Sjöholm SWE Molgaard 22 00:51:56 4 118,7